sensor_id;sensor_type;location;lat;lon;timestamp;pressure;altitude;pressure_sealevel;temperature;humidity
56518;BME280;42419;48.760;2.322;2022-10-23T00:00:29;100346.19;;;22.97;49.80
56518;BME280;42419;48.760;2.322;2022-10-23T00:02:54;100341.84;;;22.95;50.18
56518;BME280;42419;48.760;2.322;2022-10-23T00:05:21;100342.63;;;22.97;49.91
56518;BME280;42419;48.760;2.322;2022-10-23T00:07:51;100334.66;;;22.95;50.13
56518;BME280;42419;48.760;2.322;2022-10-23T00:10:17;100328.34;;;22.96;50.16
56518;BME280;42419;48.760;2.322;2022-10-23T00:12:43;100332.84;;;22.96;49.86
56518;BME280;42419;48.760;2.322;2022-10-23T00:15:08;100332.84;;;22.96;49.77
56518;BME280;42419;48.760;2.322;2022-10-23T00:17:34;100309.13;;;22.88;50.14
56518;BME280;42419;48.760;2.322;2022-10-23T00:19:59;100319.50;;;22.94;49.70
56518;BME280;42419;48.760;2.322;2022-10-23T00:22:25;100322.28;;;22.93;49.85
56518;BME280;42419;48.760;2.322;2022-10-23T00:24:50;100322.28;;;22.93;49.93
56518;BME280;42419;48.760;2.322;2022-10-23T00:27:16;100317.78;;;22.93;50.12
56518;BME280;42419;48.760;2.322;2022-10-23T00:29:43;100314.22;;;22.93;50.00
56518;BME280;42419;48.760;2.322;2022-10-23T00:32:09;100308.94;;;22.91;49.97
56518;BME280;42419;48.760;2.322;2022-10-23T00:34:34;100320.47;;;22.93;49.71
56518;BME280;42419;48.760;2.322;2022-10-23T00:36:59;100306.25;;;22.91;49.41
56518;BME280;42419;48.760;2.322;2022-10-23T00:39:25;100302.63;;;22.92;49.62
56518;BME280;42419;48.760;2.322;2022-10-23T00:41:50;100296.38;;;22.92;49.84
56518;BME280;42419;48.760;2.322;2022-10-23T00:46:44;100292.84;;;22.91;49.90
56518;BME280;42419;48.760;2.322;2022-10-23T00:49:10;100291.09;;;22.90;49.51
56518;BME280;42419;48.760;2.322;2022-10-23T00:51:43;100281.59;;;22.84;49.88
56518;BME280;42419;48.760;2.322;2022-10-23T00:54:11;100277.78;;;22.89;49.77
56518;BME280;42419;48.760;2.322;2022-10-23T00:56:39;100254.91;;;22.81;49.40
56518;BME280;42419;48.760;2.322;2022-10-23T00:59:06;100246.97;;;22.80;49.30
56518;BME280;42419;48.760;2.322;2022-10-23T01:01:32;100238.06;;;22.79;49.87
56518;BME280;42419;48.760;2.322;2022-10-23T01:03:59;100238.66;;;22.84;49.52
56518;BME280;42419;48.760;2.322;2022-10-23T01:06:33;100247.38;;;22.88;49.86
56518;BME280;42419;48.760;2.322;2022-10-23T01:09:08;100248.25;;;22.89;49.53
56518;BME280;42419;48.760;2.322;2022-10-23T01:11:53;100236.72;;;22.87;49.43
56518;BME280;42419;48.760;2.322;2022-10-23T01:14:36;100235.78;;;22.88;49.37
56518;BME280;42419;48.760;2.322;2022-10-23T01:17:13;100233.16;;;22.86;49.65
56518;BME280;42419;48.760;2.322;2022-10-23T01:19:48;100225.13;;;22.86;50.17
56518;BME280;42419;48.760;2.322;2022-10-23T01:22:52;100231.34;;;22.87;49.39
56518;BME280;42419;48.760;2.322;2022-10-23T01:28:33;100208.25;;;22.84;49.55
56518;BME280;42419;48.760;2.322;2022-10-23T01:31:04;100205.56;;;22.84;49.39
56518;BME280;42419;48.760;2.322;2022-10-23T01:33:39;100204.88;;;22.80;49.46
56518;BME280;42419;48.760;2.322;2022-10-23T01:36:11;100213.72;;;22.82;49.67
56518;BME280;42419;48.760;2.322;2022-10-23T01:38:51;100207.38;;;22.83;49.66
56518;BME280;42419;48.760;2.322;2022-10-23T01:44:18;100186.34;;;22.76;49.52
56518;BME280;42419;48.760;2.322;2022-10-23T01:46:47;100206.59;;;22.81;49.67
56518;BME280;42419;48.760;2.322;2022-10-23T01:49:16;100208.34;;;22.82;49.57
56518;BME280;42419;48.760;2.322;2022-10-23T01:51:44;100205.72;;;22.81;49.65
56518;BME280;42419;48.760;2.322;2022-10-23T01:54:12;100202.97;;;22.82;49.14
56518;BME280;42419;48.760;2.322;2022-10-23T01:56:40;100194.03;;;22.82;49.22
56518;BME280;42419;48.760;2.322;2022-10-23T01:59:10;100197.59;;;22.82;49.20
56518;BME280;42419;48.760;2.322;2022-10-23T02:01:40;100186.88;;;22.82;49.34
56518;BME280;42419;48.760;2.322;2022-10-23T02:04:07;100181.50;;;22.82;49.67
56518;BME280;42419;48.760;2.322;2022-10-23T02:06:33;100168.16;;;22.81;49.14
56518;BME280;42419;48.760;2.322;2022-10-23T02:08:59;100169.03;;;22.81;49.38
56518;BME280;42419;48.760;2.322;2022-10-23T02:11:24;100167.13;;;22.83;49.55
56518;BME280;42419;48.760;2.322;2022-10-23T02:13:58;100164.53;;;22.82;49.30
56518;BME280;42419;48.760;2.322;2022-10-23T02:19:28;100183.38;;;22.80;49.04
56518;BME280;42419;48.760;2.322;2022-10-23T02:22:36;100151.72;;;22.71;49.42
56518;BME280;42419;48.760;2.322;2022-10-23T02:25:10;100159.22;;;22.80;49.39
56518;BME280;42419;48.760;2.322;2022-10-23T02:27:40;100152.16;;;22.79;49.15
56518;BME280;42419;48.760;2.322;2022-10-23T02:30:10;100145.81;;;22.80;49.28
56518;BME280;42419;48.760;2.322;2022-10-23T02:32:39;100144.09;;;22.79;48.98
56518;BME280;42419;48.760;2.322;2022-10-23T02:35:06;100151.19;;;22.80;49.30
56518;BME280;42419;48.760;2.322;2022-10-23T02:37:32;100145.81;;;22.80;49.44
56518;BME280;42419;48.760;2.322;2022-10-23T02:39:58;100130.69;;;22.79;49.27
56518;BME280;42419;48.760;2.322;2022-10-23T02:42:32;100133.38;;;22.79;49.36
56518;BME280;42419;48.760;2.322;2022-10-23T02:45:12;100122.06;;;22.74;49.37
56518;BME280;42419;48.760;2.322;2022-10-23T02:53:15;100121.78;;;22.79;49.22
56518;BME280;42419;48.760;2.322;2022-10-23T02:56:02;100116.41;;;22.79;49.45
56518;BME280;42419;48.760;2.322;2022-10-23T02:58:47;100120.97;;;22.77;49.10
56518;BME280;42419;48.760;2.322;2022-10-23T03:01:21;100110.25;;;22.77;49.21
56518;BME280;42419;48.760;2.322;2022-10-23T03:03:52;100106.69;;;22.76;48.86
56518;BME280;42419;48.760;2.322;2022-10-23T03:06:19;100104.88;;;22.77;49.16
56518;BME280;42419;48.760;2.322;2022-10-23T03:08:52;100098.66;;;22.76;49.00
56518;BME280;42419;48.760;2.322;2022-10-23T03:11:18;100096.81;;;22.77;49.41
56518;BME280;42419;48.760;2.322;2022-10-23T03:13:44;100101.34;;;22.76;49.01
56518;BME280;42419;48.760;2.322;2022-10-23T03:16:09;100104.00;;;22.76;49.07
56518;BME280;42419;48.760;2.322;2022-10-23T03:18:34;100093.28;;;22.76;49.34
56518;BME280;42419;48.760;2.322;2022-10-23T03:21:00;100096.81;;;22.77;48.97
56518;BME280;42419;48.760;2.322;2022-10-23T03:23:25;100081.59;;;22.77;49.00
56518;BME280;42419;48.760;2.322;2022-10-23T03:25:52;100064.63;;;22.77;49.01
56518;BME280;42419;48.760;2.322;2022-10-23T03:28:17;100066.44;;;22.76;49.25
56518;BME280;42419;48.760;2.322;2022-10-23T03:30:42;100053.22;;;22.73;49.16
56518;BME280;42419;48.760;2.322;2022-10-23T03:33:08;100063.75;;;22.76;49.27
56518;BME280;42419;48.760;2.322;2022-10-23T03:35:33;100067.31;;;22.77;48.97
56518;BME280;42419;48.760;2.322;2022-10-23T03:37:59;100067.41;;;22.75;49.30
56518;BME280;42419;48.760;2.322;2022-10-23T03:40:24;100063.97;;;22.73;49.23
56518;BME280;42419;48.760;2.322;2022-10-23T03:42:49;100069.53;;;22.70;48.88
56518;BME280;42419;48.760;2.322;2022-10-23T03:45:14;100055.69;;;22.76;49.23
56518;BME280;42419;48.760;2.322;2022-10-23T03:47:40;100076.44;;;22.74;49.04
56518;BME280;42419;48.760;2.322;2022-10-23T03:50:09;100063.00;;;22.74;48.82
56518;BME280;42419;48.760;2.322;2022-10-23T03:52:34;100055.91;;;22.73;49.26
56518;BME280;42419;48.760;2.322;2022-10-23T03:55:00;100054.66;;;22.65;49.22
56518;BME280;42419;48.760;2.322;2022-10-23T03:57:26;100056.28;;;22.67;49.11
56518;BME280;42419;48.760;2.322;2022-10-23T03:59:51;100051.88;;;22.66;49.03
56518;BME280;42419;48.760;2.322;2022-10-23T04:02:17;100073.75;;;22.74;49.35
56518;BME280;42419;48.760;2.322;2022-10-23T04:04:42;100079.09;;;22.74;48.90
56518;BME280;42419;48.760;2.322;2022-10-23T04:07:08;100075.63;;;22.72;48.91
56518;BME280;42419;48.760;2.322;2022-10-23T04:09:33;100064.81;;;22.74;48.97
56518;BME280;42419;48.760;2.322;2022-10-23T04:11:58;100057.81;;;22.71;49.04
56518;BME280;42419;48.760;2.322;2022-10-23T04:14:24;100065.69;;;22.74;49.08
56518;BME280;42419;48.760;2.322;2022-10-23T04:16:49;100079.09;;;22.74;48.91
56518;BME280;42419;48.760;2.322;2022-10-23T04:19:15;100079.09;;;22.74;48.99
56518;BME280;42419;48.760;2.322;2022-10-23T04:21:41;100080.06;;;22.73;49.13
56518;BME280;42419;48.760;2.322;2022-10-23T04:24:07;100072.94;;;22.72;49.00
56518;BME280;42419;48.760;2.322;2022-10-23T04:26:32;100075.63;;;22.72;49.16
56518;BME280;42419;48.760;2.322;2022-10-23T04:28:57;100038.69;;;22.48;49.08
56518;BME280;42419;48.760;2.322;2022-10-23T04:31:23;100068.53;;;22.71;49.17
56518;BME280;42419;48.760;2.322;2022-10-23T04:33:48;100051.97;;;22.65;48.80
56518;BME280;42419;48.760;2.322;2022-10-23T04:36:16;100057.81;;;22.71;49.04
56518;BME280;42419;48.760;2.322;2022-10-23T04:38:41;100050.63;;;22.72;49.20
56518;BME280;42419;48.760;2.322;2022-10-23T04:41:07;100037.31;;;22.70;48.80
56518;BME280;42419;48.760;2.322;2022-10-23T04:43:32;100038.06;;;22.72;48.91
56518;BME280;42419;48.760;2.322;2022-10-23T04:45:57;100055.03;;;22.73;49.20
56518;BME280;42419;48.760;2.322;2022-10-23T04:48:23;100079.19;;;22.73;49.10
56518;BME280;42419;48.760;2.322;2022-10-23T04:50:59;100082.81;;;22.72;49.04
56518;BME280;42419;48.760;2.322;2022-10-23T04:53:25;100050.00;;;22.53;49.12
56518;BME280;42419;48.760;2.322;2022-10-23T04:55:53;100077.47;;;22.72;49.20
56518;BME280;42419;48.760;2.322;2022-10-23T04:58:19;100072.94;;;22.72;48.88
56518;BME280;42419;48.760;2.322;2022-10-23T05:00:45;100070.38;;;22.71;48.79
56518;BME280;42419;48.760;2.322;2022-10-23T05:03:10;100075.75;;;22.71;48.78
56518;BME280;42419;48.760;2.322;2022-10-23T05:05:36;100050.63;;;22.72;49.13
56518;BME280;42419;48.760;2.322;2022-10-23T05:08:01;100039.88;;;22.72;48.91
56518;BME280;42419;48.760;2.322;2022-10-23T05:10:26;99992.97;;;22.49;49.04
56518;BME280;42419;48.760;2.322;2022-10-23T05:12:52;100034.53;;;22.72;48.84
56518;BME280;42419;48.760;2.322;2022-10-23T05:15:17;100035.38;;;22.72;48.93
56518;BME280;42419;48.760;2.322;2022-10-23T05:17:43;100024.66;;;22.72;49.21
56518;BME280;42419;48.760;2.322;2022-10-23T05:20:16;100017.53;;;22.71;48.73
56518;BME280;42419;48.760;2.322;2022-10-23T05:22:44;100005.88;;;22.72;48.72
56518;BME280;42419;48.760;2.322;2022-10-23T05:25:12;99990.72;;;22.71;49.19
56518;BME280;42419;48.760;2.322;2022-10-23T05:27:37;99986.22;;;22.72;49.15
56518;BME280;42419;48.760;2.322;2022-10-23T05:30:06;99957.38;;;22.61;48.68
56518;BME280;42419;48.760;2.322;2022-10-23T05:32:32;99983.66;;;22.70;49.02
56518;BME280;42419;48.760;2.322;2022-10-23T05:35:00;99979.16;;;22.71;48.84
56518;BME280;42419;48.760;2.322;2022-10-23T05:37:27;99979.97;;;22.71;48.81
56518;BME280;42419;48.760;2.322;2022-10-23T05:39:53;99962.56;;;22.64;48.87
56518;BME280;42419;48.760;2.322;2022-10-23T05:42:18;99970.22;;;22.70;49.03
56518;BME280;42419;48.760;2.322;2022-10-23T05:44:43;99922.47;;;22.47;48.74
56518;BME280;42419;48.760;2.322;2022-10-23T05:47:08;99950.94;;;22.64;48.82
56518;BME280;42419;48.760;2.322;2022-10-23T05:49:34;99967.53;;;22.70;49.26
56518;BME280;42419;48.760;2.322;2022-10-23T05:51:59;99966.56;;;22.71;49.12
56518;BME280;42419;48.760;2.322;2022-10-23T05:54:25;99979.97;;;22.71;49.04
56518;BME280;42419;48.760;2.322;2022-10-23T05:56:50;99969.84;;;22.62;49.12
56518;BME280;42419;48.760;2.322;2022-10-23T05:59:16;99999.63;;;22.72;48.92
56518;BME280;42419;48.760;2.322;2022-10-23T06:01:41;99996.09;;;22.71;48.78
56518;BME280;42419;48.760;2.322;2022-10-23T06:04:06;99971.38;;;22.66;48.92
56518;BME280;42419;48.760;2.322;2022-10-23T06:06:32;99975.00;;;22.65;49.03
56518;BME280;42419;48.760;2.322;2022-10-23T06:08:57;99986.31;;;22.70;48.87
56518;BME280;42419;48.760;2.322;2022-10-23T06:11:22;99986.31;;;22.70;48.71
56518;BME280;42419;48.760;2.322;2022-10-23T06:13:48;99984.50;;;22.71;48.75
56518;BME280;42419;48.760;2.322;2022-10-23T06:16:21;99976.53;;;22.69;48.67
56518;BME280;42419;48.760;2.322;2022-10-23T06:18:47;99973.88;;;22.69;49.13
56518;BME280;42419;48.760;2.322;2022-10-23T06:21:13;99982.78;;;22.70;49.26
56518;BME280;42419;48.760;2.322;2022-10-23T06:23:40;99983.66;;;22.70;49.06
56518;BME280;42419;48.760;2.322;2022-10-23T06:26:07;99959.28;;;22.59;49.14
56518;BME280;42419;48.760;2.322;2022-10-23T06:28:34;99961.31;;;22.70;48.85
56518;BME280;42419;48.760;2.322;2022-10-23T06:31:03;99944.84;;;22.62;49.39
56518;BME280;42419;48.760;2.322;2022-10-23T06:33:29;99958.50;;;22.71;49.41
56518;BME280;42419;48.760;2.322;2022-10-23T06:35:57;99948.63;;;22.72;49.32
56518;BME280;42419;48.760;2.322;2022-10-23T06:38:22;99942.31;;;22.73;49.41
56518;BME280;42419;48.760;2.322;2022-10-23T06:40:52;99944.81;;;22.76;49.41
56518;BME280;42419;48.760;2.322;2022-10-23T06:43:18;99954.59;;;22.77;49.27
56518;BME280;42419;48.760;2.322;2022-10-23T06:45:43;99956.41;;;22.76;49.72
56518;BME280;42419;48.760;2.322;2022-10-23T06:48:08;99965.22;;;22.78;49.50
56518;BME280;42419;48.760;2.322;2022-10-23T06:50:35;99956.59;;;22.73;48.26
56518;BME280;42419;48.760;2.322;2022-10-23T06:53:01;99956.03;;;22.68;48.01
56518;BME280;42419;48.760;2.322;2022-10-23T06:55:28;99953.63;;;22.64;47.91
56518;BME280;42419;48.760;2.322;2022-10-23T06:57:54;99946.81;;;22.58;48.09
56518;BME280;42419;48.760;2.322;2022-10-23T07:00:19;99941.81;;;22.52;47.89
56518;BME280;42419;48.760;2.322;2022-10-23T07:02:45;99948.13;;;22.51;47.58
56518;BME280;42419;48.760;2.322;2022-10-23T07:05:11;99918.63;;;22.37;47.45
56518;BME280;42419;48.760;2.322;2022-10-23T07:07:36;99939.50;;;22.46;47.77
56518;BME280;42419;48.760;2.322;2022-10-23T07:10:02;99929.72;;;22.45;47.85
56518;BME280;42419;48.760;2.322;2022-10-23T07:12:27;99937.19;;;22.40;47.88
56518;BME280;42419;48.760;2.322;2022-10-23T07:14:53;99930.13;;;22.39;48.52
56518;BME280;42419;48.760;2.322;2022-10-23T07:17:18;99919.84;;;22.31;47.71
56518;BME280;42419;48.760;2.322;2022-10-23T07:19:45;99913.66;;;22.17;47.42
56518;BME280;42419;48.760;2.322;2022-10-23T07:22:10;99940.28;;;22.34;47.75
56518;BME280;42419;48.760;2.322;2022-10-23T07:24:36;99940.47;;;22.31;47.78
56518;BME280;42419;48.760;2.322;2022-10-23T07:27:03;99951.66;;;22.23;47.53
56518;BME280;42419;48.760;2.322;2022-10-23T07:29:29;99947.06;;;22.11;47.71
56518;BME280;42419;48.760;2.322;2022-10-23T07:31:55;99938.69;;;22.02;47.70
56518;BME280;42419;48.760;2.322;2022-10-23T07:34:21;99939.06;;;21.95;47.92
56518;BME280;42419;48.760;2.322;2022-10-23T07:36:46;99932.94;;;21.93;48.29
56518;BME280;42419;48.760;2.322;2022-10-23T07:39:12;99938.38;;;21.92;48.33
56518;BME280;42419;48.760;2.322;2022-10-23T07:41:38;99926.97;;;21.88;48.50
56518;BME280;42419;48.760;2.322;2022-10-23T07:44:03;99937.50;;;21.91;48.18
56518;BME280;42419;48.760;2.322;2022-10-23T07:46:28;99939.25;;;21.92;48.32
56518;BME280;42419;48.760;2.322;2022-10-23T07:48:54;99939.25;;;21.92;48.10
56518;BME280;42419;48.760;2.322;2022-10-23T07:51:20;99934.75;;;21.93;48.17
56518;BME280;42419;48.760;2.322;2022-10-23T07:53:45;99926.78;;;21.91;48.04
56518;BME280;42419;48.760;2.322;2022-10-23T07:56:19;99935.69;;;21.92;48.31
56518;BME280;42419;48.760;2.322;2022-10-23T07:58:46;99930.34;;;21.92;48.07
56518;BME280;42419;48.760;2.322;2022-10-23T08:01:17;99932.94;;;21.93;48.35
56518;BME280;42419;48.760;2.322;2022-10-23T08:03:43;99933.69;;;21.95;48.04
56518;BME280;42419;48.760;2.322;2022-10-23T08:06:09;99934.47;;;21.98;48.22
56518;BME280;42419;48.760;2.322;2022-10-23T08:08:35;99928.16;;;21.99;48.33
56518;BME280;42419;48.760;2.322;2022-10-23T08:11:00;99911.50;;;21.93;47.95
56518;BME280;42419;48.760;2.322;2022-10-23T08:13:25;99912.56;;;22.05;48.12
56518;BME280;42419;48.760;2.322;2022-10-23T08:15:51;99929.91;;;22.14;48.02
56518;BME280;42419;48.760;2.322;2022-10-23T08:18:17;99937.84;;;22.15;47.91
56518;BME280;42419;48.760;2.322;2022-10-23T08:20:45;99925.78;;;22.08;48.10
56518;BME280;42419;48.760;2.322;2022-10-23T08:23:11;99920.16;;;22.13;47.70
56518;BME280;42419;48.760;2.322;2022-10-23T08:25:38;99920.03;;;22.14;48.17
56518;BME280;42419;48.760;2.322;2022-10-23T08:28:04;99897.19;;;22.09;47.80
56518;BME280;42419;48.760;2.322;2022-10-23T08:30:30;99898.19;;;22.06;47.97
56518;BME280;42419;48.760;2.322;2022-10-23T08:32:55;99914.13;;;22.23;47.86
56518;BME280;42419;48.760;2.322;2022-10-23T08:35:21;99916.44;;;22.29;47.81
56518;BME280;42419;48.760;2.322;2022-10-23T08:37:46;99915.47;;;22.45;47.75
56518;BME280;42419;48.760;2.322;2022-10-23T08:40:21;99918.47;;;22.54;46.63
56518;BME280;42419;48.760;2.322;2022-10-23T08:42:56;99909.81;;;22.49;47.11
56518;BME280;42419;48.760;2.322;2022-10-23T08:47:50;99923.06;;;22.52;46.76
56518;BME280;42419;48.760;2.322;2022-10-23T08:50:31;99919.03;;;22.59;47.04
56518;BME280;42419;48.760;2.322;2022-10-23T08:55:44;99921.13;;;22.68;46.98
56518;BME280;42419;48.760;2.322;2022-10-23T08:58:53;99902.72;;;22.76;46.93
56518;BME280;42419;48.760;2.322;2022-10-23T09:01:39;99908.88;;;22.78;46.60
56518;BME280;42419;48.760;2.322;2022-10-23T09:04:07;99901.56;;;22.80;47.01
56518;BME280;42419;48.760;2.322;2022-10-23T09:06:58;99907.22;;;22.76;46.53
56518;BME280;42419;48.760;2.322;2022-10-23T09:12:14;99901.53;;;22.95;46.11
56518;BME280;42419;48.760;2.322;2022-10-23T09:14:53;99900.13;;;23.16;46.03
56518;BME280;42419;48.760;2.322;2022-10-23T09:17:30;99904.31;;;23.34;45.68
56518;BME280;42419;48.760;2.322;2022-10-23T09:22:25;99893.19;;;23.40;45.54
56518;BME280;42419;48.760;2.322;2022-10-23T09:24:51;99889.31;;;23.44;45.88
56518;BME280;42419;48.760;2.322;2022-10-23T09:27:17;99889.97;;;23.48;45.30
56518;BME280;42419;48.760;2.322;2022-10-23T09:29:53;99906.22;;;23.46;44.97
56518;BME280;42419;48.760;2.322;2022-10-23T09:32:30;99893.03;;;23.56;45.57
56518;BME280;42419;48.760;2.322;2022-10-23T09:34:56;99882.34;;;23.42;49.04
56518;BME280;42419;48.760;2.322;2022-10-23T09:37:33;99876.69;;;23.05;52.38
56518;BME280;42419;48.760;2.322;2022-10-23T09:40:28;99888.41;;;22.90;54.14
56518;BME280;42419;48.760;2.322;2022-10-23T09:43:13;99885.66;;;22.77;52.17
56518;BME280;42419;48.760;2.322;2022-10-23T09:45:39;99886.34;;;22.67;53.11
56518;BME280;42419;48.760;2.322;2022-10-23T09:48:12;99867.56;;;22.53;53.85
56518;BME280;42419;48.760;2.322;2022-10-23T09:50:48;99880.88;;;22.40;53.47
56518;BME280;42419;48.760;2.322;2022-10-23T09:53:25;99869.03;;;22.30;53.58
56518;BME280;42419;48.760;2.322;2022-10-23T09:55:56;99877.44;;;22.24;52.99
56518;BME280;42419;48.760;2.322;2022-10-23T09:58:51;99869.00;;;22.16;54.75
56518;BME280;42419;48.760;2.322;2022-10-23T10:01:29;99856.19;;;22.07;55.10
56518;BME280;42419;48.760;2.322;2022-10-23T10:03:55;99848.06;;;22.08;55.02
56518;BME280;42419;48.760;2.322;2022-10-23T10:06:30;99860.75;;;22.05;55.47
56518;BME280;42419;48.760;2.322;2022-10-23T10:09:09;99849.56;;;21.98;55.99
56518;BME280;42419;48.760;2.322;2022-10-23T10:11:49;99836.44;;;21.93;57.73
56518;BME280;42419;48.760;2.322;2022-10-23T10:14:37;99867.19;;;22.02;59.02
56518;BME280;42419;48.760;2.322;2022-10-23T10:20:27;99855.13;;;21.95;57.55
56518;BME280;42419;48.760;2.322;2022-10-23T10:23:06;99850.72;;;21.94;56.16
56518;BME280;42419;48.760;2.322;2022-10-23T10:41:08;99857.25;;;21.74;55.64
56518;BME280;42419;48.760;2.322;2022-10-23T10:52:41;99839.94;;;21.80;60.81
56518;BME280;42419;48.760;2.322;2022-10-23T10:55:16;99843.13;;;21.86;59.82
56518;BME280;42419;48.760;2.322;2022-10-23T10:57:46;99831.19;;;21.92;59.52
56518;BME280;42419;48.760;2.322;2022-10-23T11:00:16;99824.88;;;21.93;59.51
56518;BME280;42419;48.760;2.322;2022-10-23T11:02:48;99826.09;;;22.02;60.50
56518;BME280;42419;48.760;2.322;2022-10-23T11:05:32;99794.97;;;21.85;58.82
56518;BME280;42419;48.760;2.322;2022-10-23T11:08:14;99817.88;;;22.05;59.99
56518;BME280;42419;48.760;2.322;2022-10-23T11:10:45;99811.75;;;22.03;59.56
56518;BME280;42419;48.760;2.322;2022-10-23T11:13:29;99835.78;;;22.18;60.57
56518;BME280;42419;48.760;2.322;2022-10-23T11:16:02;99816.06;;;22.19;59.45
56518;BME280;42419;48.760;2.322;2022-10-23T11:18:29;99802.56;;;22.21;59.12
56518;BME280;42419;48.760;2.322;2022-10-23T11:29:08;99788.22;;;22.22;58.46
56518;BME280;42419;48.760;2.322;2022-10-23T11:34:27;99796.25;;;22.22;59.34
56518;BME280;42419;48.760;2.322;2022-10-23T11:36:59;99800.53;;;22.24;59.48
56518;BME280;42419;48.760;2.322;2022-10-23T11:39:30;99792.50;;;22.24;57.51
56518;BME280;42419;48.760;2.322;2022-10-23T11:42:12;99791.84;;;22.21;57.72
56518;BME280;42419;48.760;2.322;2022-10-23T11:44:44;99788.09;;;22.23;59.10
56518;BME280;42419;48.760;2.322;2022-10-23T11:47:34;99793.38;;;22.25;59.79
56518;BME280;42419;48.760;2.322;2022-10-23T11:52:39;99771.03;;;22.24;58.10
56518;BME280;42419;48.760;2.322;2022-10-23T11:57:42;99764.81;;;22.24;57.99
56518;BME280;42419;48.760;2.322;2022-10-23T12:00:20;99759.44;;;22.24;57.28
56518;BME280;42419;48.760;2.322;2022-10-23T12:02:51;99764.81;;;22.24;56.00
56518;BME280;42419;48.760;2.322;2022-10-23T12:05:33;99744.31;;;22.23;58.76
56518;BME280;42419;48.760;2.322;2022-10-23T12:08:02;99739.25;;;22.18;57.59
56518;BME280;42419;48.760;2.322;2022-10-23T12:10:34;99721.25;;;22.20;58.04
56518;BME280;42419;48.760;2.322;2022-10-23T12:13:46;99732.63;;;22.24;57.90
56518;BME280;42419;48.760;2.322;2022-10-23T12:16:11;99727.28;;;22.24;58.03
56518;BME280;42419;48.760;2.322;2022-10-23T12:18:51;99710.19;;;22.12;57.31
56518;BME280;42419;48.760;2.322;2022-10-23T12:21:19;99717.31;;;22.26;57.89
56518;BME280;42419;48.760;2.322;2022-10-23T12:34:41;99719.59;;;22.32;56.72
56518;BME280;42419;48.760;2.322;2022-10-23T12:39:54;99703.63;;;22.30;57.03
56518;BME280;42419;48.760;2.322;2022-10-23T12:42:25;99702.75;;;22.30;57.27
56518;BME280;42419;48.760;2.322;2022-10-23T12:47:23;99686.66;;;22.30;53.94
56518;BME280;42419;48.760;2.322;2022-10-23T12:49:49;99698.34;;;22.29;53.34
56518;BME280;42419;48.760;2.322;2022-10-23T12:52:16;99679.50;;;22.30;53.30
56518;BME280;42419;48.760;2.322;2022-10-23T12:54:42;99663.56;;;22.27;53.92
56518;BME280;42419;48.760;2.322;2022-10-23T12:57:25;99660.16;;;22.25;52.67
56518;BME280;42419;48.760;2.322;2022-10-23T13:00:00;99658.50;;;22.23;52.19
56518;BME280;42419;48.760;2.322;2022-10-23T13:02:30;99648.00;;;22.20;52.06
56518;BME280;42419;48.760;2.322;2022-10-23T13:04:59;99643.03;;;22.14;53.01
56518;BME280;42419;48.760;2.322;2022-10-23T13:07:28;99639.47;;;22.13;52.20
56518;BME280;42419;48.760;2.322;2022-10-23T13:09:54;99636.06;;;22.11;52.49
56518;BME280;42419;48.760;2.322;2022-10-23T13:12:31;99625.84;;;22.04;53.74
56518;BME280;42419;48.760;2.322;2022-10-23T13:20:25;99619.94;;;21.99;51.80
56518;BME280;42419;48.760;2.322;2022-10-23T13:23:18;99610.06;;;21.99;53.26
56518;BME280;42419;48.760;2.322;2022-10-23T13:25:58;99612.84;;;21.98;52.99
56518;BME280;42419;48.760;2.322;2022-10-23T13:28:31;99598.00;;;21.92;52.06
56518;BME280;42419;48.760;2.322;2022-10-23T13:41:42;99581.53;;;21.98;54.01
56518;BME280;42419;48.760;2.322;2022-10-23T13:44:11;99587.75;;;21.99;53.23
56518;BME280;42419;48.760;2.322;2022-10-23T13:46:37;99568.66;;;21.90;53.44
56518;BME280;42419;48.760;2.322;2022-10-23T13:49:02;99570.16;;;21.94;53.35
56518;BME280;42419;48.760;2.322;2022-10-23T13:51:29;99584.88;;;22.02;53.51
56518;BME280;42419;48.760;2.322;2022-10-23T13:53:55;99572.34;;;22.02;53.53
56518;BME280;42419;48.760;2.322;2022-10-23T13:56:23;99570.31;;;22.06;53.35
56518;BME280;42419;48.760;2.322;2022-10-23T13:58:49;99549.03;;;21.90;52.90
56518;BME280;42419;48.760;2.322;2022-10-23T14:01:21;99564.94;;;22.06;53.71
56518;BME280;42419;48.760;2.322;2022-10-23T14:03:48;99552.41;;;22.06;52.82
56518;BME280;42419;48.760;2.322;2022-10-23T14:06:14;99547.50;;;22.13;53.47
56518;BME280;42419;48.760;2.322;2022-10-23T14:08:39;99542.16;;;22.13;53.23
56518;BME280;42419;48.760;2.322;2022-10-23T14:11:04;99542.03;;;22.14;52.87
56518;BME280;42419;48.760;2.322;2022-10-23T14:13:30;99537.31;;;22.18;53.26
56518;BME280;42419;48.760;2.322;2022-10-23T14:15:56;99523.16;;;22.16;53.22
56518;BME280;42419;48.760;2.322;2022-10-23T14:18:21;99511.25;;;22.20;52.82
56518;BME280;42419;48.760;2.322;2022-10-23T14:20:47;99523.28;;;22.27;53.40
56518;BME280;42419;48.760;2.322;2022-10-23T14:23:12;99526.50;;;22.32;52.82
56518;BME280;42419;48.760;2.322;2022-10-23T14:25:37;99504.66;;;22.38;52.60
56518;BME280;42419;48.760;2.322;2022-10-23T14:28:03;99516.78;;;22.44;52.23
56518;BME280;42419;48.760;2.322;2022-10-23T14:30:28;99515.59;;;22.48;52.44
56518;BME280;42419;48.760;2.322;2022-10-23T14:32:54;99516.34;;;22.50;52.45
56518;BME280;42419;48.760;2.322;2022-10-23T14:35:19;99515.28;;;22.52;52.32
56518;BME280;42419;48.760;2.322;2022-10-23T14:37:45;99531.28;;;22.54;52.56
56518;BME280;42419;48.760;2.322;2022-10-23T14:40:10;99533.78;;;22.57;52.32
56518;BME280;42419;48.760;2.322;2022-10-23T14:42:36;99538.59;;;22.64;51.99
56518;BME280;42419;48.760;2.322;2022-10-23T14:45:02;99537.66;;;22.65;51.90
56518;BME280;42419;48.760;2.322;2022-10-23T14:47:28;99535.69;;;22.67;51.88
56518;BME280;42419;48.760;2.322;2022-10-23T14:49:53;99537.00;;;22.62;51.06